createdAt,value
2024-05-09T00:01:12.595Z,80.97
2024-05-09T00:03:44.594Z,80.87
2024-05-09T00:06:17.823Z,81.07
2024-05-09T00:08:48.144Z,81.08
2024-05-09T00:11:20.604Z,80.78
2024-05-09T00:13:51.119Z,80.73
2024-05-09T00:16:21.387Z,81.08
2024-05-09T00:18:51.689Z,81.10
2024-05-09T00:21:24.777Z,81.51
2024-05-09T00:23:55.045Z,81.46
2024-05-09T00:26:25.477Z,81.53
2024-05-09T00:28:55.896Z,81.67
2024-05-09T00:31:28.532Z,81.92
2024-05-09T00:33:58.970Z,81.95
2024-05-09T00:36:32.245Z,81.91
2024-05-09T00:39:02.747Z,81.58
2024-05-09T00:41:36.110Z,81.77
2024-05-09T00:44:06.471Z,81.03
2024-05-09T00:46:36.892Z,80.98
2024-05-09T00:49:07.212Z,81.31
2024-05-09T00:51:42.145Z,80.97
2024-05-09T00:54:12.418Z,81.36
2024-05-09T00:56:43.267Z,81.44
2024-05-09T00:59:13.748Z,81.41
2024-05-09T01:01:44.372Z,81.37
2024-05-09T01:04:15.019Z,81.18
2024-05-09T01:06:47.936Z,80.95
2024-05-09T01:09:18.282Z,81.42
2024-05-09T01:11:48.886Z,80.91
2024-05-09T01:14:19.456Z,81.55
2024-05-09T01:16:50.138Z,81.04
2024-05-09T01:19:32.842Z,81.19
2024-05-09T01:22:08.021Z,81.49
2024-05-09T01:24:41.095Z,81.32
2024-05-09T01:27:11.521Z,81.16
2024-05-09T01:29:41.775Z,82.08
2024-05-09T01:32:12.082Z,81.44
2024-05-09T01:34:42.570Z,81.42
2024-05-09T01:37:13.055Z,81.66
2024-05-09T01:39:46.185Z,81.56
2024-05-09T01:42:16.741Z,81.31
2024-05-09T01:44:47.048Z,80.71
2024-05-09T01:47:17.601Z,80.68
2024-05-09T01:49:48.137Z,80.95
2024-05-09T01:52:18.639Z,81.09
2024-05-09T01:54:51.722Z,81.07
2024-05-09T01:57:22.050Z,81.24
2024-05-09T01:59:52.407Z,81.01
2024-05-09T02:02:22.924Z,81.85
2024-05-09T02:04:53.303Z,81.96
2024-05-09T02:07:23.683Z,81.71
2024-05-09T02:09:57.692Z,82.33
2024-05-09T02:12:28.035Z,82.43
2024-05-09T02:14:58.728Z,82.32
2024-05-09T02:17:29.492Z,82.76
2024-05-09T02:19:59.975Z,82.90
2024-05-09T02:22:30.333Z,82.67
2024-05-09T02:25:03.758Z,82.69
2024-05-09T02:27:34.227Z,82.93
2024-05-09T02:30:09.905Z,82.88
2024-05-09T02:32:45.911Z,82.94
2024-05-09T02:35:16.703Z,82.60
2024-05-09T02:37:44.386Z,82.52
2024-05-09T02:40:25.216Z,82.28
2024-05-09T02:42:56.681Z,82.46
2024-05-09T02:45:27.692Z,81.76
2024-05-09T02:47:55.510Z,81.70
2024-05-09T02:50:33.903Z,81.46
2024-05-09T02:53:06.541Z,81.76
2024-05-09T02:55:39.435Z,81.98
2024-05-09T02:58:08.353Z,81.84
2024-05-09T03:00:41.534Z,81.80
2024-05-09T03:03:12.809Z,82.15
2024-05-09T03:05:45.836Z,81.99
2024-05-09T03:08:14.139Z,81.59
2024-05-09T03:10:47.449Z,81.17
2024-05-09T03:13:16.260Z,81.21
2024-05-09T03:15:47.138Z,81.40
2024-05-09T03:18:16.139Z,80.93
2024-05-09T03:20:46.747Z,81.42
2024-05-09T03:23:14.598Z,81.35
2024-05-09T03:25:47.837Z,81.16
2024-05-09T03:28:15.532Z,81.25
2024-05-09T03:30:45.845Z,81.15
2024-05-09T03:33:15.626Z,80.87
2024-05-09T03:35:47.213Z,81.08
2024-05-09T03:38:18.260Z,81.18
2024-05-09T03:40:50.007Z,81.01
2024-05-09T03:43:21.750Z,80.78
2024-05-09T03:45:53.296Z,80.45
2024-05-09T03:48:21.515Z,80.72
2024-05-09T03:50:51.963Z,80.92
2024-05-09T03:53:19.760Z,80.55
2024-05-09T03:55:52.882Z,80.43
2024-05-09T03:58:20.808Z,80.77
2024-05-09T04:00:51.252Z,80.69
2024-05-09T04:03:19.247Z,80.02
2024-05-09T04:05:49.760Z,80.06
2024-05-09T04:08:17.398Z,80.25
2024-05-09T04:10:47.876Z,80.42
2024-05-09T04:13:18.330Z,80.61
2024-05-09T04:15:48.686Z,80.61
2024-05-09T04:18:17.807Z,80.34
2024-05-09T04:20:48.219Z,80.97
2024-05-09T04:23:15.975Z,81.46
2024-05-09T04:25:47.083Z,81.63
2024-05-09T04:28:15.088Z,81.98
2024-05-09T04:30:48.231Z,81.70
2024-05-09T04:33:20.232Z,82.09
2024-05-09T04:35:49.636Z,82.13
2024-05-09T04:38:20.301Z,82.30
2024-05-09T04:40:48.281Z,82.07
2024-05-09T04:43:20.688Z,81.95
2024-05-09T04:45:51.598Z,81.96
2024-05-09T04:48:22.225Z,82.04
2024-05-09T04:50:50.236Z,82.25
2024-05-09T04:53:20.821Z,82.59
2024-05-09T04:55:48.966Z,82.88
2024-05-09T04:58:19.383Z,82.75
2024-05-09T05:00:47.148Z,83.17
2024-05-09T05:03:20.690Z,83.40
2024-05-09T05:05:48.752Z,82.99
2024-05-09T05:08:19.907Z,83.46
2024-05-09T05:10:49.121Z,83.79
2024-05-09T05:13:21.594Z,84.08
2024-05-09T05:15:51.113Z,84.33
2024-05-09T05:18:24.910Z,84.25
2024-05-09T05:20:53.057Z,84.67
2024-05-09T05:23:24.455Z,84.85
2024-05-09T05:25:53.911Z,85.03
2024-05-09T05:28:24.899Z,85.28
2024-05-09T05:30:52.591Z,85.58
2024-05-09T05:33:27.997Z,85.91
2024-05-09T05:35:57.493Z,86.18
2024-05-09T05:38:28.612Z,85.97
2024-05-09T05:40:56.750Z,86.17
2024-05-09T05:43:27.314Z,86.56
2024-05-09T05:45:54.978Z,86.79
2024-05-09T05:48:28.139Z,87.24
2024-05-09T05:50:56.073Z,87.20
2024-05-09T05:53:26.554Z,87.19
2024-05-09T05:55:54.556Z,87.40
2024-05-09T05:58:24.979Z,87.43
2024-05-09T06:00:53.878Z,88.19
2024-05-09T06:03:24.200Z,88.44
2024-05-09T06:05:54.450Z,89.18
2024-05-09T06:08:27.055Z,89.37
2024-05-09T06:10:57.811Z,89.89
2024-05-09T06:13:28.513Z,90.45
2024-05-09T06:15:56.326Z,90.14
2024-05-09T06:18:26.982Z,90.64
2024-05-09T06:20:57.427Z,90.47
2024-05-09T06:23:27.831Z,91.31
2024-05-09T06:25:55.593Z,91.42
2024-05-09T06:28:25.998Z,91.78
2024-05-09T06:30:53.689Z,92.07
2024-05-09T06:33:24.510Z,92.30
2024-05-09T06:35:54.521Z,92.70
2024-05-09T06:38:27.694Z,92.87
2024-05-09T06:40:55.681Z,92.98
2024-05-09T06:43:26.406Z,93.71
2024-05-09T06:45:54.275Z,93.78
2024-05-09T06:48:24.963Z,93.48
2024-05-09T06:50:52.931Z,93.45
2024-05-09T06:53:27.899Z,93.17
2024-05-09T06:55:55.787Z,92.78
2024-05-09T06:58:26.029Z,92.66
2024-05-09T07:00:53.753Z,91.53
2024-05-09T07:03:24.327Z,91.62
2024-05-09T07:05:52.095Z,90.18
2024-05-09T07:08:22.561Z,88.95
2024-05-09T07:10:53.134Z,89.15
2024-05-09T07:13:23.721Z,89.75
2024-05-09T07:15:51.400Z,88.93
2024-05-09T07:18:22.216Z,87.64
2024-05-09T07:20:50.742Z,84.94
2024-05-09T07:23:21.708Z,85.19
2024-05-09T07:25:52.028Z,83.92
2024-05-09T07:28:25.209Z,84.33
2024-05-09T07:30:54.437Z,83.47
2024-05-09T07:33:25.398Z,82.81
2024-05-09T07:35:53.322Z,81.56
2024-05-09T07:38:24.638Z,82.50
2024-05-09T07:40:55.014Z,82.24
2024-05-09T07:43:25.283Z,83.37
2024-05-09T07:45:55.211Z,83.45
2024-05-09T07:50:00.725Z,82.67
2024-05-09T07:53:55.960Z,79.78
2024-05-09T07:56:29.096Z,80.03
2024-05-09T07:58:59.716Z,80.12
2024-05-09T08:01:27.622Z,80.04
2024-05-09T08:03:58.452Z,80.16
2024-05-09T08:06:27.049Z,80.61
2024-05-09T08:09:05.107Z,79.96
2024-05-09T08:11:38.344Z,80.42
2024-05-09T08:14:08.885Z,80.00
2024-05-09T08:16:36.446Z,79.69
2024-05-09T08:19:06.872Z,77.82
2024-05-09T08:21:34.541Z,78.01
2024-05-09T08:24:04.798Z,77.49
2024-05-09T08:26:32.475Z,77.35
2024-05-09T08:29:05.671Z,77.38
2024-05-09T08:31:38.457Z,77.62
2024-05-09T08:34:08.956Z,77.52
2024-05-09T08:36:36.784Z,76.99
2024-05-09T08:39:07.237Z,76.93
2024-05-09T08:41:35.535Z,78.42
2024-05-09T08:44:08.526Z,76.76
2024-05-09T08:46:36.336Z,76.76
2024-05-09T08:49:07.117Z,76.25
2024-05-09T08:51:35.204Z,76.29
2024-05-09T08:54:05.731Z,78.01
2024-05-09T08:56:35.483Z,74.12
2024-05-09T08:59:11.406Z,72.91
2024-05-09T09:01:41.231Z,72.21
2024-05-09T09:04:13.729Z,72.76
2024-05-09T09:06:41.684Z,72.22
2024-05-09T09:09:13.741Z,70.21
2024-05-09T09:11:41.404Z,71.09
2024-05-09T09:14:14.469Z,70.27
2024-05-09T09:16:42.102Z,69.04
2024-05-09T09:19:14.833Z,67.29
2024-05-09T09:21:42.800Z,67.74
2024-05-09T09:24:13.270Z,67.11
2024-05-09T09:26:40.946Z,67.75
2024-05-09T09:29:14.176Z,68.48
2024-05-09T09:31:42.230Z,69.93
2024-05-09T09:34:13.179Z,73.50
2024-05-09T09:36:43.342Z,71.39
2024-05-09T09:39:13.543Z,68.54
2024-05-09T09:41:41.940Z,68.27
2024-05-09T09:44:15.167Z,68.56
2024-05-09T09:46:42.813Z,68.60
2024-05-09T09:49:13.617Z,68.69
2024-05-09T09:51:43.891Z,68.65
2024-05-09T09:54:15.178Z,68.46
2024-05-09T09:56:45.428Z,66.95
2024-05-09T09:59:19.461Z,67.47
2024-05-09T10:01:47.380Z,67.40
2024-05-09T10:04:19.563Z,67.40
2024-05-09T10:06:51.331Z,66.39
2024-05-09T10:09:21.858Z,67.84
2024-05-09T10:11:52.329Z,66.54
2024-05-09T10:14:31.065Z,66.77
2024-05-09T10:17:05.561Z,69.03
2024-05-09T10:19:36.183Z,68.13
2024-05-09T10:22:06.131Z,68.16
2024-05-09T10:24:50.870Z,69.16
2024-05-09T10:27:27.168Z,66.95
2024-05-09T10:30:01.123Z,64.72
2024-05-09T10:32:29.736Z,64.43
2024-05-09T10:35:03.762Z,65.45
2024-05-09T10:37:32.482Z,64.77
2024-05-09T10:40:07.218Z,61.74
2024-05-09T10:42:41.862Z,60.60
2024-05-09T10:45:15.044Z,60.59
2024-05-09T10:47:42.831Z,61.78
2024-05-09T10:50:22.214Z,63.30
2024-05-09T10:52:55.906Z,59.95
2024-05-09T10:55:26.211Z,59.90
2024-05-09T11:28:55.810Z,66.48
2024-05-09T11:31:23.771Z,63.86
2024-05-09T11:33:58.502Z,63.16
2024-05-09T11:36:26.203Z,62.01
2024-05-09T11:38:56.484Z,61.43
2024-05-09T11:41:26.460Z,61.20
2024-05-09T11:43:59.384Z,61.77
2024-05-09T11:46:27.960Z,60.53
2024-05-09T11:48:58.428Z,59.26
2024-05-09T11:51:26.241Z,58.17
2024-05-09T11:53:57.422Z,56.63
2024-05-09T11:56:25.182Z,57.81
2024-05-09T11:58:56.038Z,58.31
2024-05-09T12:01:29.154Z,60.43
2024-05-09T12:04:00.018Z,58.54
2024-05-09T12:06:28.205Z,58.49
2024-05-09T12:08:58.772Z,58.22
2024-05-09T12:11:26.414Z,56.36
2024-05-09T12:13:56.895Z,56.27
2024-05-09T12:16:24.871Z,55.76
2024-05-09T12:18:58.170Z,55.32
2024-05-09T12:21:26.106Z,55.98
2024-05-09T12:23:56.692Z,55.80
2024-05-09T12:26:24.507Z,55.98
2024-05-09T12:28:54.953Z,55.83
2024-05-09T12:31:22.779Z,56.35
2024-05-09T12:33:54.735Z,55.69
2024-05-09T12:36:25.289Z,54.24
2024-05-09T12:38:55.608Z,54.62
2024-05-09T12:41:23.392Z,54.07
2024-05-09T12:43:53.944Z,53.52
2024-05-09T12:46:22.646Z,54.81
2024-05-09T12:48:53.706Z,54.55
2024-05-09T12:51:24.434Z,53.28
2024-05-09T12:53:54.769Z,53.45
2024-05-09T12:56:22.672Z,53.33
2024-05-09T12:58:52.987Z,53.95
2024-05-09T13:01:20.818Z,55.93
2024-05-09T13:03:51.452Z,55.52
2024-05-09T13:06:19.311Z,54.63
2024-05-09T13:08:52.447Z,54.19
2024-05-09T13:11:20.395Z,53.24
2024-05-09T13:13:50.956Z,52.80
2024-05-09T13:16:18.957Z,51.95
2024-05-09T13:18:49.594Z,51.37
2024-05-09T13:21:17.394Z,51.65
2024-05-09T13:23:47.845Z,51.77
2024-05-09T13:26:18.504Z,51.41
2024-05-09T13:28:48.786Z,51.68
2024-05-09T13:31:17.039Z,51.31
2024-05-09T13:33:47.725Z,51.46
2024-05-09T13:36:15.584Z,51.55
2024-05-09T13:38:45.967Z,52.25
2024-05-09T13:41:13.987Z,50.63
2024-05-09T13:43:47.043Z,51.39
2024-05-09T13:46:15.305Z,50.74
2024-05-09T13:48:45.790Z,50.98
2024-05-09T13:51:13.648Z,51.67
2024-05-09T13:53:44.042Z,52.63
2024-05-09T13:56:12.978Z,51.66
2024-05-09T13:58:44.025Z,51.92
2024-05-09T14:01:14.532Z,52.04
2024-05-09T14:03:45.168Z,51.38
2024-05-09T14:06:13.330Z,51.51
2024-05-09T14:08:43.858Z,51.76
2024-05-09T14:11:11.767Z,51.53
2024-05-09T14:13:42.203Z,50.19
2024-05-09T14:16:10.157Z,50.39
2024-05-09T14:18:43.564Z,51.55
2024-05-09T14:21:11.408Z,52.03
2024-05-09T14:23:41.789Z,53.11
2024-05-09T14:26:09.857Z,53.04
2024-05-09T14:28:40.062Z,52.75
2024-05-09T14:31:07.739Z,52.92
2024-05-09T14:33:38.558Z,53.29
2024-05-09T14:36:09.436Z,53.41
2024-05-09T14:38:39.937Z,54.10
2024-05-09T14:41:09.474Z,53.33
2024-05-09T14:43:39.757Z,53.37
2024-05-09T14:46:07.579Z,53.14
2024-05-09T14:48:38.190Z,53.19
2024-05-09T14:51:08.783Z,52.92
2024-05-09T14:53:39.151Z,53.66
2024-05-09T14:56:07.529Z,52.31
2024-05-09T14:58:38.198Z,52.73
2024-05-09T15:01:06.375Z,53.04
2024-05-09T15:03:36.930Z,52.86
2024-05-09T15:06:05.573Z,53.13
2024-05-09T15:08:38.895Z,52.76
2024-05-09T15:11:06.763Z,52.97
2024-05-09T15:13:37.370Z,53.60
2024-05-09T15:16:05.775Z,53.50
2024-05-09T15:18:36.208Z,52.56
2024-05-09T15:21:04.045Z,52.83
2024-05-09T15:23:34.469Z,53.07
2024-05-09T15:26:05.499Z,52.81
2024-05-09T15:28:35.818Z,52.67
2024-05-09T15:31:03.432Z,52.94
2024-05-09T15:33:33.983Z,52.45
2024-05-09T15:36:02.052Z,53.22
2024-05-09T15:38:32.651Z,53.29
2024-05-09T15:41:00.462Z,53.48
2024-05-09T15:43:33.732Z,54.90
2024-05-09T15:46:01.572Z,54.59
2024-05-09T15:48:32.221Z,55.53
2024-05-09T15:51:00.052Z,55.68
2024-05-09T15:53:30.483Z,55.84
2024-05-09T15:55:58.205Z,55.97
2024-05-09T15:58:28.858Z,56.45
2024-05-09T16:00:59.930Z,56.43
2024-05-09T16:03:30.620Z,56.10
2024-05-09T16:05:58.881Z,56.47
2024-05-09T16:08:29.386Z,57.21
2024-05-09T16:10:57.115Z,57.13
2024-05-09T16:13:27.767Z,57.55
2024-05-09T16:15:55.770Z,57.52
2024-05-09T16:18:28.830Z,57.04
2024-05-09T16:21:00.366Z,57.27
2024-05-09T16:23:32.776Z,57.74
2024-05-09T16:26:00.616Z,57.53
2024-05-09T16:28:31.150Z,57.64
2024-05-09T16:31:00.027Z,57.60
2024-05-09T16:33:33.611Z,58.01
2024-05-09T16:36:01.340Z,58.04
2024-05-09T16:38:31.690Z,58.06
2024-05-09T16:41:00.350Z,57.96
2024-05-09T16:43:30.738Z,57.84
2024-05-09T16:45:58.723Z,58.28
2024-05-09T16:48:29.109Z,58.76
2024-05-09T16:50:59.470Z,58.90
2024-05-09T16:53:29.945Z,59.63
2024-05-09T16:55:57.684Z,59.71
2024-05-09T16:58:28.457Z,59.17
2024-05-09T17:00:56.342Z,59.25
2024-05-09T17:07:22.028Z,59.80
2024-05-09T17:09:49.973Z,59.50
2024-05-09T17:12:20.302Z,59.72
2024-05-09T17:14:50.672Z,59.35
2024-05-09T17:17:21.366Z,58.97
2024-05-09T17:19:52.184Z,58.91
2024-05-09T17:22:22.651Z,58.94
2024-05-09T17:24:53.258Z,58.72
2024-05-09T17:27:21.127Z,58.68
2024-05-09T17:29:51.912Z,58.94
2024-05-09T17:32:37.442Z,58.36
2024-05-09T17:35:05.823Z,58.08
2024-05-09T17:37:36.436Z,58.54
2024-05-09T17:40:06.824Z,58.42
2024-05-09T17:42:41.800Z,58.19
2024-05-09T17:45:09.544Z,57.93
2024-05-09T17:47:42.890Z,58.36
2024-05-09T17:50:15.046Z,58.04
2024-05-09T17:52:53.972Z,58.27
2024-05-09T17:55:21.768Z,58.33
2024-05-09T17:57:52.279Z,58.48
2024-05-09T18:00:28.958Z,58.92
2024-05-09T18:03:11.842Z,59.24
2024-05-09T18:05:40.996Z,59.32
2024-05-09T18:08:11.999Z,59.28
2024-05-09T18:10:41.062Z,59.13
2024-05-09T18:13:12.617Z,60.30
2024-05-09T18:15:40.799Z,59.61
2024-05-09T18:18:16.605Z,59.64
2024-05-09T18:20:46.360Z,60.30
2024-05-09T18:23:19.094Z,60.33
2024-05-09T18:25:47.878Z,60.34
2024-05-09T18:28:18.944Z,60.36
2024-05-09T18:30:47.101Z,60.75
2024-05-09T18:33:20.716Z,60.73
2024-05-09T18:35:48.992Z,60.80
2024-05-09T18:38:25.732Z,61.11
2024-05-09T18:40:53.732Z,61.48
2024-05-09T18:43:28.832Z,61.64
2024-05-09T18:46:04.300Z,61.69
2024-05-09T18:48:37.520Z,62.06
2024-05-09T18:52:12.592Z,62.54
2024-05-09T18:54:40.439Z,62.09
2024-05-09T18:57:10.891Z,62.34
2024-05-09T18:59:38.776Z,62.37
2024-05-09T19:02:09.531Z,62.24
2024-05-09T19:04:37.577Z,65.20
2024-05-09T19:08:16.257Z,63.88
2024-05-09T19:10:46.125Z,62.93
2024-05-09T19:13:17.268Z,63.34
2024-05-09T19:15:45.278Z,63.11
2024-05-09T19:18:17.275Z,62.80
2024-05-09T19:20:45.589Z,63.18
2024-05-09T19:23:18.778Z,62.88
2024-05-09T19:25:46.786Z,63.72
2024-05-09T19:28:17.321Z,64.15
2024-05-09T19:30:45.438Z,64.37
2024-05-09T19:33:15.895Z,64.37
2024-05-09T19:35:44.190Z,64.47
2024-05-09T19:38:18.101Z,65.81
2024-05-09T19:40:46.071Z,65.38
2024-05-09T19:43:16.771Z,65.70
2024-05-09T19:45:44.897Z,65.98
2024-05-09T19:48:15.442Z,65.44
2024-05-09T19:50:44.850Z,65.76
2024-05-09T19:53:19.343Z,65.64
2024-05-09T19:55:46.998Z,65.77
2024-05-09T19:58:17.354Z,65.90
2024-05-09T20:00:45.202Z,66.50
2024-05-09T20:03:16.712Z,66.53
2024-05-09T20:05:46.731Z,65.92
2024-05-09T20:08:20.418Z,66.27
2024-05-09T20:10:48.637Z,67.27
2024-05-09T20:13:19.066Z,67.15
2024-05-09T20:15:47.108Z,68.30
2024-05-09T20:18:18.093Z,68.22
2024-05-09T20:20:47.238Z,68.47
2024-05-09T20:23:21.307Z,68.30
2024-05-09T20:25:49.061Z,68.59
2024-05-09T20:28:19.691Z,68.72
2024-05-09T20:30:47.454Z,68.69
2024-05-09T20:33:17.953Z,69.17
2024-05-09T20:35:45.801Z,68.71
2024-05-09T20:38:16.383Z,69.53
2024-05-09T20:40:46.919Z,69.70
2024-05-09T20:43:17.491Z,69.72
2024-05-09T20:45:45.156Z,69.87
2024-05-09T20:48:15.649Z,69.88
2024-05-09T20:50:43.569Z,70.43
2024-05-09T20:53:15.336Z,70.58
2024-05-09T20:55:47.194Z,70.75
2024-05-09T20:58:17.577Z,71.01
2024-05-09T21:00:46.370Z,71.30
2024-05-09T21:03:18.188Z,71.54
2024-05-09T21:05:47.324Z,71.37
2024-05-09T21:08:18.364Z,71.65
2024-05-09T21:10:49.026Z,72.06
2024-05-09T21:13:20.007Z,71.84
2024-05-09T21:15:47.909Z,71.84
2024-05-09T21:18:18.539Z,71.76
2024-05-09T21:20:46.282Z,71.70
2024-05-09T21:23:16.719Z,72.17
2024-05-09T21:25:44.405Z,71.83
2024-05-09T21:28:17.731Z,72.42
2024-05-09T21:30:45.782Z,72.40
2024-05-09T21:33:16.576Z,72.49
2024-05-09T21:35:45.218Z,72.79
2024-05-09T21:38:16.372Z,73.46
2024-05-09T21:40:44.934Z,73.53
2024-05-09T21:43:18.709Z,73.52
2024-05-09T21:45:46.676Z,73.46
2024-05-09T21:48:17.159Z,74.05
2024-05-09T21:50:45.210Z,74.27
2024-05-09T21:53:16.036Z,74.30
2024-05-09T21:55:43.818Z,74.39
2024-05-09T21:58:17.736Z,74.44
2024-05-09T22:00:46.590Z,74.39
2024-05-09T22:03:17.910Z,74.44
2024-05-09T22:05:45.875Z,74.73
2024-05-09T22:08:16.203Z,74.82
2024-05-09T22:10:44.099Z,74.93
2024-05-09T22:13:15.988Z,75.00
2024-05-09T22:15:46.624Z,75.52
2024-05-09T22:18:17.444Z,75.39
2024-05-09T22:20:46.416Z,75.96
2024-05-09T22:23:18.223Z,76.01
2024-05-09T22:25:46.044Z,75.92
2024-05-09T22:28:18.193Z,75.73
2024-05-09T22:30:50.696Z,75.22
2024-05-09T22:33:21.290Z,75.43
2024-05-09T22:35:49.051Z,75.42
2024-05-09T22:38:19.334Z,75.33
2024-05-09T22:40:49.527Z,75.01
2024-05-09T22:43:25.255Z,74.84
2024-05-09T22:45:56.322Z,74.85
2024-05-09T22:48:26.962Z,75.05
2024-05-09T22:50:55.294Z,75.23
2024-05-09T22:53:26.607Z,75.44
2024-05-09T22:55:54.697Z,75.82
2024-05-09T22:58:26.055Z,75.60
2024-05-09T23:00:56.493Z,75.63
2024-05-09T23:03:27.019Z,75.55
2024-05-09T23:05:54.874Z,75.92
2024-05-09T23:08:25.647Z,76.16
2024-05-09T23:10:53.796Z,76.14
2024-05-09T23:13:24.868Z,76.47
2024-05-09T23:15:52.690Z,75.98
2024-05-09T23:18:25.799Z,76.25
2024-05-09T23:20:56.729Z,76.16
2024-05-09T23:23:26.993Z,76.00
2024-05-09T23:25:54.645Z,76.12
2024-05-09T23:28:25.124Z,76.33
2024-05-09T23:30:52.942Z,76.63
2024-05-09T23:33:26.137Z,76.69
2024-05-09T23:35:53.874Z,77.03
2024-05-09T23:38:24.893Z,77.01
2024-05-09T23:40:52.964Z,76.80
2024-05-09T23:43:23.746Z,77.16
2024-05-09T23:45:51.564Z,77.17
2024-05-09T23:48:22.250Z,77.13
2024-05-09T23:50:52.788Z,77.18
2024-05-09T23:53:23.258Z,77.39
2024-05-09T23:55:51.084Z,77.19
2024-05-09T23:58:21.725Z,77.29
